createdAt,value
2018-10-06T00:00:33.450Z,11.07
2018-10-06T00:06:36.918Z,13.43
2018-10-06T00:12:40.526Z,10.97
2018-10-06T00:18:43.977Z,11.60
2018-10-06T00:24:47.597Z,10.77
2018-10-06T00:30:51.193Z,9.57
2018-10-06T00:36:54.544Z,10.60
2018-10-06T00:42:58.757Z,11.43
2018-10-06T00:49:03.041Z,10.17
2018-10-06T00:55:06.619Z,12.90
2018-10-06T01:01:09.860Z,12.47
2018-10-06T01:07:14.479Z,11.83
2018-10-06T01:13:18.141Z,11.07
2018-10-06T01:19:21.517Z,11.40
2018-10-06T01:25:25.269Z,11.33
2018-10-06T01:31:28.729Z,13.47
2018-10-06T01:37:32.244Z,14.47
2018-10-06T01:43:35.801Z,12.67
2018-10-06T01:49:39.470Z,12.77
2018-10-06T01:55:43.112Z,13.27
2018-10-06T02:01:46.522Z,14.70
2018-10-06T02:07:49.918Z,13.00
2018-10-06T02:13:53.525Z,13.17
2018-10-06T02:19:56.996Z,15.20
2018-10-06T02:26:00.722Z,13.87
2018-10-06T02:32:04.310Z,14.53
2018-10-06T02:38:07.641Z,13.20
2018-10-06T02:44:11.253Z,14.43
2018-10-06T02:50:14.752Z,13.87
2018-10-06T02:56:18.485Z,14.17
2018-10-06T03:02:21.967Z,13.50
2018-10-06T03:08:25.523Z,14.10
2018-10-06T03:14:30.243Z,13.97
2018-10-06T03:20:34.743Z,14.67
2018-10-06T03:26:38.122Z,14.33
2018-10-06T03:32:41.840Z,13.73
2018-10-06T03:38:45.740Z,16.87
2018-10-06T03:44:49.318Z,13.87
2018-10-06T03:50:53.387Z,14.00
2018-10-06T03:56:58.066Z,15.63
2018-10-06T04:03:03.197Z,14.93
2018-10-06T04:09:09.078Z,14.13
2018-10-06T04:15:12.552Z,14.37
2018-10-06T04:21:16.103Z,16.70
2018-10-06T04:27:20.294Z,17.07
2018-10-06T04:33:24.271Z,14.63
2018-10-06T04:39:27.664Z,14.93
2018-10-06T04:45:31.458Z,17.00
2018-10-06T04:51:35.701Z,15.53
2018-10-06T04:57:39.054Z,15.90
2018-10-06T05:03:42.577Z,15.17
2018-10-06T05:09:47.465Z,16.60
2018-10-06T05:15:51.080Z,16.20
2018-10-06T05:21:54.357Z,16.27
2018-10-06T05:27:58.550Z,17.13
2018-10-06T05:34:01.967Z,16.50
2018-10-06T05:40:05.853Z,15.27
2018-10-06T05:46:09.367Z,15.33
2018-10-06T05:52:13.174Z,15.03
2018-10-06T05:58:16.649Z,13.90
2018-10-06T06:04:20.089Z,14.43
2018-10-06T06:10:23.521Z,15.83
2018-10-06T06:16:27.464Z,18.60
2018-10-06T06:22:31.101Z,16.20
2018-10-06T06:28:34.930Z,14.03
2018-10-06T06:34:38.829Z,13.63
2018-10-06T06:40:42.577Z,12.93
2018-10-06T06:46:45.895Z,14.43
2018-10-06T06:52:50.682Z,10.03
2018-10-06T06:58:54.249Z,8.87
2018-10-06T07:04:57.494Z,8.17
2018-10-06T07:11:01.681Z,7.20
2018-10-06T07:17:05.769Z,8.53
2018-10-06T07:23:09.601Z,6.77
2018-10-06T07:29:13.103Z,7.07
2018-10-06T07:35:16.522Z,6.67
2018-10-06T07:41:20.122Z,6.63
2018-10-06T07:47:23.916Z,8.73
2018-10-06T07:53:27.894Z,6.77
2018-10-06T07:59:31.713Z,7.53
2018-10-06T08:05:38.519Z,4.80
2018-10-06T08:11:42.916Z,5.47
2018-10-06T08:17:46.274Z,4.93
2018-10-06T08:23:50.487Z,6.00
2018-10-06T08:29:54.589Z,4.30
2018-10-06T08:35:58.054Z,6.40
2018-10-06T08:42:01.867Z,4.80
2018-10-06T08:48:05.648Z,5.30
2018-10-06T08:54:09.536Z,4.73
2018-10-06T09:00:13.051Z,7.93
2018-10-06T09:06:17.440Z,4.10
2018-10-06T09:12:21.234Z,6.13
2018-10-06T09:18:25.700Z,4.00
2018-10-06T09:24:29.407Z,4.13
2018-10-06T09:30:33.643Z,4.30
2018-10-06T09:36:37.179Z,4.33
2018-10-06T09:42:40.959Z,4.23
2018-10-06T09:48:44.913Z,4.70
2018-10-06T09:54:48.724Z,4.23
2018-10-06T10:00:58.140Z,4.57
2018-10-06T10:07:01.669Z,6.90
2018-10-06T10:13:05.002Z,4.43
2018-10-06T10:19:08.432Z,4.17
2018-10-06T10:25:12.025Z,4.87
2018-10-06T10:31:16.120Z,4.23
2018-10-06T10:37:19.608Z,4.17
2018-10-06T10:43:23.510Z,6.10
2018-10-06T10:49:28.318Z,9.00
2018-10-06T10:55:31.956Z,4.73
2018-10-06T11:01:35.778Z,5.80
2018-10-06T11:07:39.567Z,5.07
2018-10-06T11:13:43.075Z,7.03
2018-10-06T11:19:46.516Z,3.50
2018-10-06T11:25:51.258Z,4.53
2018-10-06T11:31:54.638Z,4.60
2018-10-06T11:37:58.153Z,5.57
2018-10-06T11:44:01.492Z,4.47
2018-10-06T11:50:05.396Z,6.03
2018-10-06T11:56:08.790Z,3.93
2018-10-06T12:02:12.214Z,3.33
2018-10-06T12:08:16.162Z,4.45
2018-10-06T12:14:19.560Z,4.87
2018-10-06T12:20:23.023Z,3.73
2018-10-06T12:26:26.362Z,3.20
2018-10-06T12:32:31.102Z,4.37
2018-10-06T12:38:34.550Z,3.45
2018-10-06T12:44:38.437Z,4.78
2018-10-06T12:50:41.994Z,4.58
2018-10-06T12:56:45.675Z,3.35
2018-10-06T13:02:49.832Z,4.20
2018-10-06T13:08:53.279Z,4.65
2018-10-06T13:14:56.666Z,3.58
2018-10-06T13:21:00.429Z,4.20
2018-10-06T13:27:03.998Z,3.25
2018-10-06T13:33:07.439Z,4.05
2018-10-06T13:39:11.578Z,4.08
2018-10-06T13:45:15.718Z,5.95
2018-10-06T13:51:19.748Z,2.33
2018-10-06T13:57:23.345Z,2.85
2018-10-06T14:03:26.991Z,3.37
2018-10-06T14:09:30.318Z,6.20
2018-10-06T14:15:33.893Z,2.20
2018-10-06T14:21:37.852Z,5.95
2018-10-06T14:27:41.519Z,3.05
2018-10-06T14:33:51.481Z,2.40
2018-10-06T14:39:55.744Z,5.33
2018-10-06T14:45:59.687Z,3.40
2018-10-06T14:52:03.798Z,4.80
2018-10-06T14:58:08.965Z,3.17
2018-10-06T15:04:12.467Z,2.85
2018-10-06T15:10:16.481Z,3.67
2018-10-06T15:16:23.079Z,2.27
2018-10-06T15:22:29.742Z,4.90
2018-10-06T15:28:33.524Z,4.53
2018-10-06T15:34:37.206Z,3.52
2018-10-06T15:40:43.931Z,4.75
2018-10-06T15:46:48.850Z,7.25
2018-10-06T15:52:52.228Z,3.15
2018-10-06T15:58:58.165Z,5.03
2018-10-06T16:05:01.671Z,3.60
2018-10-06T16:11:05.290Z,4.47
2018-10-06T16:17:08.784Z,4.10
2018-10-06T16:23:12.327Z,3.00
2018-10-06T16:29:15.907Z,3.58
2018-10-06T16:35:19.371Z,7.35
2018-10-06T16:41:22.951Z,5.03
2018-10-06T16:47:26.966Z,3.95
2018-10-06T16:53:31.599Z,6.60
2018-10-06T16:59:35.706Z,6.28
2018-10-06T17:05:39.442Z,7.10
2018-10-06T17:11:43.273Z,11.15
2018-10-06T17:17:46.880Z,10.27
2018-10-06T17:23:50.487Z,5.97
2018-10-06T17:29:54.692Z,9.70
2018-10-06T17:35:58.455Z,8.57
2018-10-06T17:42:02.373Z,8.90
2018-10-06T17:48:07.113Z,4.63
2018-10-06T17:54:11.150Z,5.83
2018-10-06T18:00:14.872Z,6.93
2018-10-06T18:06:18.327Z,8.40
2018-10-06T18:12:22.176Z,7.73
2018-10-06T18:18:25.722Z,10.70
2018-10-06T18:24:30.059Z,5.87
2018-10-06T18:30:33.748Z,7.30
2018-10-06T18:36:38.311Z,6.53
2018-10-06T18:42:42.187Z,8.43
2018-10-06T18:48:46.101Z,6.23
2018-10-06T18:54:49.853Z,12.53
2018-10-06T19:00:53.463Z,12.13
2018-10-06T19:06:57.391Z,11.07
2018-10-06T19:13:01.537Z,9.40
2018-10-06T19:19:06.095Z,19.37
2018-10-06T19:25:09.985Z,16.27
2018-10-06T19:31:13.828Z,10.77
2018-10-06T19:37:18.401Z,6.87
2018-10-06T19:43:22.141Z,4.80
2018-10-06T19:49:26.698Z,5.30
2018-10-06T19:55:30.482Z,11.50
2018-10-06T20:01:34.539Z,6.93
2018-10-06T20:07:44.501Z,9.90
2018-10-06T20:13:48.360Z,10.70
2018-10-06T20:19:51.968Z,9.17
2018-10-06T20:25:55.674Z,8.33
2018-10-06T20:31:59.110Z,12.13
2018-10-06T20:38:02.692Z,6.27
2018-10-06T20:44:06.865Z,6.43
2018-10-06T20:50:10.632Z,7.83
2018-10-06T20:56:14.567Z,6.40
2018-10-06T21:02:17.937Z,7.57
2018-10-06T21:08:24.872Z,9.80
2018-10-06T21:14:28.410Z,12.57
2018-10-06T21:20:32.700Z,8.40
2018-10-06T21:26:36.647Z,8.20
2018-10-06T21:32:40.060Z,13.93
2018-10-06T21:38:43.685Z,16.17
2018-10-06T21:44:47.735Z,23.03
2018-10-06T21:50:51.948Z,26.83
2018-10-06T21:56:55.288Z,28.63
2018-10-06T22:02:59.435Z,31.57
2018-10-06T22:09:02.978Z,38.00
2018-10-06T22:15:06.700Z,40.87
2018-10-06T22:21:10.138Z,39.87
2018-10-06T22:27:14.076Z,45.87
2018-10-06T22:33:17.565Z,51.13
2018-10-06T22:39:21.331Z,46.20
2018-10-06T22:45:24.854Z,50.90
2018-10-06T22:51:28.526Z,47.70
2018-10-06T22:57:32.343Z,52.27
2018-10-06T23:03:35.898Z,49.10
2018-10-06T23:09:39.787Z,53.93
2018-10-06T23:15:44.040Z,49.43
2018-10-06T23:21:48.984Z,54.40
2018-10-06T23:27:53.195Z,48.87
2018-10-06T23:33:58.182Z,51.53
2018-10-06T23:40:02.397Z,53.03
2018-10-06T23:46:06.044Z,55.20
2018-10-06T23:52:09.504Z,55.00
2018-10-06T23:58:13.132Z,55.97
